sensor_id;sensor_type;location;lat;lon;timestamp;pressure;altitude;pressure_sealevel;temperature;humidity
69570;BME280;56781;42.292;23.146;2023-05-21T00:00:21;95298.34;;;13.52;91.01
69570;BME280;56781;42.292;23.146;2023-05-21T00:02:48;95299.44;;;13.60;90.19
69570;BME280;56781;42.292;23.146;2023-05-21T00:05:17;95302.47;;;13.50;91.19
69570;BME280;56781;42.292;23.146;2023-05-21T00:07:44;95297.88;;;13.50;91.05
69570;BME280;56781;42.292;23.146;2023-05-21T00:10:12;95309.41;;;13.51;91.38
69570;BME280;56781;42.292;23.146;2023-05-21T00:12:40;95303.91;;;13.47;92.04
69570;BME280;56781;42.292;23.146;2023-05-21T00:15:08;95297.81;;;13.29;92.79
69570;BME280;56781;42.292;23.146;2023-05-21T00:17:35;95301.97;;;13.09;94.78
69570;BME280;56781;42.292;23.146;2023-05-21T00:20:03;95302.91;;;13.05;95.14
69570;BME280;56781;42.292;23.146;2023-05-21T00:22:34;95292.88;;;12.84;95.44
69570;BME280;56781;42.292;23.146;2023-05-21T00:25:02;95283.09;;;12.71;96.75
69570;BME280;56781;42.292;23.146;2023-05-21T00:27:29;95272.03;;;12.64;96.58
69570;BME280;56781;42.292;23.146;2023-05-21T00:29:57;95296.38;;;12.68;98.29
69570;BME280;56781;42.292;23.146;2023-05-21T00:32:24;95272.38;;;12.62;97.17
69570;BME280;56781;42.292;23.146;2023-05-21T00:34:51;95265.25;;;12.58;97.81
69570;BME280;56781;42.292;23.146;2023-05-21T00:37:19;95271.75;;;12.57;97.43
69570;BME280;56781;42.292;23.146;2023-05-21T00:39:47;95261.47;;;12.50;97.66
69570;BME280;56781;42.292;23.146;2023-05-21T00:42:15;95257.84;;;12.55;97.31
69570;BME280;56781;42.292;23.146;2023-05-21T00:44:44;95261.09;;;12.86;95.00
69570;BME280;56781;42.292;23.146;2023-05-21T00:47:14;95249.81;;;13.02;93.73
69570;BME280;56781;42.292;23.146;2023-05-21T00:49:44;95259.88;;;13.22;92.31
69570;BME280;56781;42.292;23.146;2023-05-21T00:52:11;95245.00;;;13.16;92.26
69570;BME280;56781;42.292;23.146;2023-05-21T00:54:38;95249.56;;;13.24;91.75
69570;BME280;56781;42.292;23.146;2023-05-21T00:57:05;95264.91;;;13.33;92.12
69570;BME280;56781;42.292;23.146;2023-05-21T00:59:33;95240.94;;;13.10;92.48
69570;BME280;56781;42.292;23.146;2023-05-21T01:02:00;95258.28;;;13.21;92.86
69570;BME280;56781;42.292;23.146;2023-05-21T01:04:31;95244.69;;;13.18;92.67
69570;BME280;56781;42.292;23.146;2023-05-21T01:06:58;95244.22;;;13.16;92.76
69570;BME280;56781;42.292;23.146;2023-05-21T01:09:26;95229.78;;;12.91;93.42
69570;BME280;56781;42.292;23.146;2023-05-21T01:11:54;95250.16;;;12.92;94.86
69570;BME280;56781;42.292;23.146;2023-05-21T01:14:23;95229.72;;;12.61;95.85
69570;BME280;56781;42.292;23.146;2023-05-21T01:16:51;95226.91;;;12.49;96.31
69570;BME280;56781;42.292;23.146;2023-05-21T01:19:20;95236.38;;;12.55;96.25
69570;BME280;56781;42.292;23.146;2023-05-21T01:22:02;95254.16;;;12.77;94.98
69570;BME280;56781;42.292;23.146;2023-05-21T01:24:30;95226.56;;;12.59;95.16
69570;BME280;56781;42.292;23.146;2023-05-21T01:26:59;95239.78;;;12.73;94.89
69570;BME280;56781;42.292;23.146;2023-05-21T01:29:27;95236.00;;;12.74;95.24
69570;BME280;56781;42.292;23.146;2023-05-21T01:32:25;95211.56;;;12.58;94.77
69570;BME280;56781;42.292;23.146;2023-05-21T01:35:04;95243.91;;;12.70;95.74
69570;BME280;56781;42.292;23.146;2023-05-21T01:37:38;95242.03;;;12.62;96.27
69570;BME280;56781;42.292;23.146;2023-05-21T01:43:14;95226.28;;;12.52;95.33
69570;BME280;56781;42.292;23.146;2023-05-21T01:45:42;95216.16;;;12.49;94.53
69570;BME280;56781;42.292;23.146;2023-05-21T01:48:11;95225.66;;;12.46;95.20
69570;BME280;56781;42.292;23.146;2023-05-21T01:50:42;95232.59;;;12.38;96.92
69570;BME280;56781;42.292;23.146;2023-05-21T01:53:09;95223.78;;;12.20;97.16
69570;BME280;56781;42.292;23.146;2023-05-21T01:55:36;95234.81;;;12.28;96.75
69570;BME280;56781;42.292;23.146;2023-05-21T01:58:08;95244.94;;;12.22;98.37
69570;BME280;56781;42.292;23.146;2023-05-21T02:00:35;95244.63;;;12.32;97.48
69570;BME280;56781;42.292;23.146;2023-05-21T02:03:03;95236.56;;;12.41;96.54
69570;BME280;56781;42.292;23.146;2023-05-21T02:05:30;95215.66;;;12.55;95.09
69570;BME280;56781;42.292;23.146;2023-05-21T02:07:57;95230.59;;;12.82;93.88
69570;BME280;56781;42.292;23.146;2023-05-21T02:10:27;95233.63;;;12.72;94.51
69570;BME280;56781;42.292;23.146;2023-05-21T02:12:54;95212.84;;;12.52;95.59
69570;BME280;56781;42.292;23.146;2023-05-21T02:15:21;95215.00;;;12.67;93.69
69570;BME280;56781;42.292;23.146;2023-05-21T02:17:50;95229.47;;;12.92;92.09
69570;BME280;56781;42.292;23.146;2023-05-21T02:20:19;95214.56;;;13.03;90.73
69570;BME280;56781;42.292;23.146;2023-05-21T02:22:48;95203.66;;;13.00;91.20
69570;BME280;56781;42.292;23.146;2023-05-21T02:25:17;95200.13;;;12.78;92.11
69570;BME280;56781;42.292;23.146;2023-05-21T02:27:45;95196.03;;;12.72;92.12
69570;BME280;56781;42.292;23.146;2023-05-21T02:30:14;95200.22;;;12.91;90.12
69570;BME280;56781;42.292;23.146;2023-05-21T02:32:42;95226.59;;;12.97;91.68
69570;BME280;56781;42.292;23.146;2023-05-21T02:35:11;95215.59;;;12.81;91.53
69570;BME280;56781;42.292;23.146;2023-05-21T02:37:39;95226.97;;;12.87;91.07
69570;BME280;56781;42.292;23.146;2023-05-21T02:40:07;95200.16;;;12.70;91.01
69570;BME280;56781;42.292;23.146;2023-05-21T02:42:36;95211.50;;;12.75;90.75
69570;BME280;56781;42.292;23.146;2023-05-21T02:45:07;95204.88;;;12.73;90.81
69570;BME280;56781;42.292;23.146;2023-05-21T02:47:34;95193.34;;;12.72;90.29
69570;BME280;56781;42.292;23.146;2023-05-21T02:50:02;95219.47;;;13.01;89.43
69570;BME280;56781;42.292;23.146;2023-05-21T02:52:29;95216.13;;;12.66;91.72
69570;BME280;56781;42.292;23.146;2023-05-21T02:54:56;95206.53;;;12.39;94.42
69570;BME280;56781;42.292;23.146;2023-05-21T02:57:23;95211.13;;;12.21;94.73
69570;BME280;56781;42.292;23.146;2023-05-21T02:59:51;95215.09;;;12.24;94.69
69570;BME280;56781;42.292;23.146;2023-05-21T03:02:18;95214.16;;;12.11;95.70
69570;BME280;56781;42.292;23.146;2023-05-21T03:04:45;95224.72;;;11.98;96.77
69570;BME280;56781;42.292;23.146;2023-05-21T03:07:14;95219.16;;;11.69;97.56
69570;BME280;56781;42.292;23.146;2023-05-21T03:09:43;95210.91;;;11.48;99.50
69570;BME280;56781;42.292;23.146;2023-05-21T03:12:10;95235.25;;;11.69;99.09
69570;BME280;56781;42.292;23.146;2023-05-21T03:14:38;95227.50;;;11.59;100.00
69570;BME280;56781;42.292;23.146;2023-05-21T03:17:05;95213.94;;;11.55;100.00
69570;BME280;56781;42.292;23.146;2023-05-21T03:19:33;95218.22;;;11.65;100.00
69570;BME280;56781;42.292;23.146;2023-05-21T03:22:02;95208.13;;;11.62;99.73
69570;BME280;56781;42.292;23.146;2023-05-21T03:24:29;95206.88;;;11.76;99.13
69570;BME280;56781;42.292;23.146;2023-05-21T03:26:58;95210.66;;;11.84;98.74
69570;BME280;56781;42.292;23.146;2023-05-21T03:29:25;95231.50;;;11.96;98.76
69570;BME280;56781;42.292;23.146;2023-05-21T03:31:52;95200.72;;;11.76;99.01
69570;BME280;56781;42.292;23.146;2023-05-21T03:34:20;95209.84;;;11.75;98.70
69570;BME280;56781;42.292;23.146;2023-05-21T03:36:47;95209.53;;;11.85;98.42
69570;BME280;56781;42.292;23.146;2023-05-21T03:39:15;95220.00;;;11.87;98.77
69570;BME280;56781;42.292;23.146;2023-05-21T03:41:42;95211.94;;;11.95;97.91
69570;BME280;56781;42.292;23.146;2023-05-21T03:44:09;95222.19;;;12.02;98.79
69570;BME280;56781;42.292;23.146;2023-05-21T03:46:36;95231.84;;;12.03;98.79
69570;BME280;56781;42.292;23.146;2023-05-21T03:49:03;95210.69;;;11.93;98.84
69570;BME280;56781;42.292;23.146;2023-05-21T03:51:31;95206.88;;;11.94;98.58
69570;BME280;56781;42.292;23.146;2023-05-21T03:53:58;95236.56;;;12.24;97.99
69570;BME280;56781;42.292;23.146;2023-05-21T03:56:25;95212.56;;;12.18;98.70
69570;BME280;56781;42.292;23.146;2023-05-21T03:58:53;95205.16;;;12.24;97.78
69570;BME280;56781;42.292;23.146;2023-05-21T04:01:20;95213.16;;;12.50;95.77
69570;BME280;56781;42.292;23.146;2023-05-21T04:03:47;95205.38;;;12.66;94.10
69570;BME280;56781;42.292;23.146;2023-05-21T04:06:15;95198.38;;;12.82;92.02
69570;BME280;56781;42.292;23.146;2023-05-21T04:08:42;95195.50;;;12.88;93.65
69570;BME280;56781;42.292;23.146;2023-05-21T04:11:10;95205.53;;;13.08;92.63
69570;BME280;56781;42.292;23.146;2023-05-21T04:13:37;95207.38;;;13.16;92.01
69570;BME280;56781;42.292;23.146;2023-05-21T04:16:04;95222.47;;;13.47;92.17
69570;BME280;56781;42.292;23.146;2023-05-21T04:18:35;95227.72;;;13.64;91.44
69570;BME280;56781;42.292;23.146;2023-05-21T04:21:02;95221.69;;;13.67;90.95
69570;BME280;56781;42.292;23.146;2023-05-21T04:23:29;95199.00;;;13.98;88.76
69570;BME280;56781;42.292;23.146;2023-05-21T04:25:56;95238.75;;;14.34;87.42
69570;BME280;56781;42.292;23.146;2023-05-21T04:28:23;95209.03;;;14.43;87.71
69570;BME280;56781;42.292;23.146;2023-05-21T04:30:54;95217.13;;;14.64;85.93
69570;BME280;56781;42.292;23.146;2023-05-21T04:33:22;95215.06;;;15.06;83.59
69570;BME280;56781;42.292;23.146;2023-05-21T04:35:50;95230.44;;;15.30;81.77
69570;BME280;56781;42.292;23.146;2023-05-21T04:38:17;95215.63;;;15.37;82.92
69570;BME280;56781;42.292;23.146;2023-05-21T04:40:49;95217.72;;;15.68;79.80
69570;BME280;56781;42.292;23.146;2023-05-21T04:43:17;95215.03;;;15.68;79.79
69570;BME280;56781;42.292;23.146;2023-05-21T04:45:52;95227.66;;;15.64;79.60
69570;BME280;56781;42.292;23.146;2023-05-21T04:48:21;95233.94;;;15.56;78.68
69570;BME280;56781;42.292;23.146;2023-05-21T04:50:53;95230.91;;;15.57;80.67
69570;BME280;56781;42.292;23.146;2023-05-21T04:53:22;95234.88;;;15.72;81.05
69570;BME280;56781;42.292;23.146;2023-05-21T04:55:49;95237.41;;;16.33;80.00
69570;BME280;56781;42.292;23.146;2023-05-21T04:58:16;95221.72;;;16.39;77.88
69570;BME280;56781;42.292;23.146;2023-05-21T05:00:45;95208.03;;;16.32;76.02
69570;BME280;56781;42.292;23.146;2023-05-21T05:03:12;95233.59;;;16.34;76.23
69570;BME280;56781;42.292;23.146;2023-05-21T05:05:40;95225.13;;;16.36;77.29
69570;BME280;56781;42.292;23.146;2023-05-21T05:08:07;95213.72;;;17.66;71.40
69570;BME280;56781;42.292;23.146;2023-05-21T05:10:34;95231.88;;;18.16;67.38
69570;BME280;56781;42.292;23.146;2023-05-21T05:13:02;95212.44;;;19.38;65.87
69570;BME280;56781;42.292;23.146;2023-05-21T05:15:29;95189.78;;;20.74;59.79
69570;BME280;56781;42.292;23.146;2023-05-21T05:17:56;95216.50;;;21.06;58.28
69570;BME280;56781;42.292;23.146;2023-05-21T05:20:23;95217.84;;;20.52;60.52
69570;BME280;56781;42.292;23.146;2023-05-21T05:22:51;95194.59;;;20.88;58.98
69570;BME280;56781;42.292;23.146;2023-05-21T05:25:18;95214.63;;;21.10;58.16
69570;BME280;56781;42.292;23.146;2023-05-21T05:27:45;95207.59;;;20.68;56.77
69570;BME280;56781;42.292;23.146;2023-05-21T05:30:12;95199.94;;;21.22;55.59
69570;BME280;56781;42.292;23.146;2023-05-21T05:32:39;95190.34;;;20.91;56.72
69570;BME280;56781;42.292;23.146;2023-05-21T05:35:07;95189.13;;;20.88;57.19
69570;BME280;56781;42.292;23.146;2023-05-21T05:37:34;95184.25;;;21.53;56.19
69570;BME280;56781;42.292;23.146;2023-05-21T05:40:02;95192.31;;;21.97;54.07
69570;BME280;56781;42.292;23.146;2023-05-21T05:42:30;95169.25;;;21.80;52.92
69570;BME280;56781;42.292;23.146;2023-05-21T05:44:57;95176.47;;;21.51;55.41
69570;BME280;56781;42.292;23.146;2023-05-21T05:47:24;95190.03;;;20.99;56.33
69570;BME280;56781;42.292;23.146;2023-05-21T05:49:51;95185.53;;;19.79;59.52
69570;BME280;56781;42.292;23.146;2023-05-21T05:52:18;95203.13;;;19.39;62.62
69570;BME280;56781;42.292;23.146;2023-05-21T05:54:45;95179.88;;;18.92;63.81
69570;BME280;56781;42.292;23.146;2023-05-21T05:57:13;95209.34;;;18.51;64.28
69570;BME280;56781;42.292;23.146;2023-05-21T05:59:40;95179.09;;;18.92;64.82
69570;BME280;56781;42.292;23.146;2023-05-21T06:02:07;95201.44;;;19.31;62.79
69570;BME280;56781;42.292;23.146;2023-05-21T06:04:34;95182.38;;;20.07;59.65
69570;BME280;56781;42.292;23.146;2023-05-21T06:07:01;95177.25;;;20.32;56.93
69570;BME280;56781;42.292;23.146;2023-05-21T06:09:28;95176.50;;;20.35;57.83
69570;BME280;56781;42.292;23.146;2023-05-21T06:11:55;95173.13;;;20.12;58.34
69570;BME280;56781;42.292;23.146;2023-05-21T06:14:22;95174.16;;;19.47;59.34
69570;BME280;56781;42.292;23.146;2023-05-21T06:16:49;95198.03;;;19.11;61.48
69570;BME280;56781;42.292;23.146;2023-05-21T06:19:17;95200.31;;;18.67;63.31
69570;BME280;56781;42.292;23.146;2023-05-21T06:21:44;95199.59;;;18.70;64.59
69570;BME280;56781;42.292;23.146;2023-05-21T06:24:11;95177.66;;;18.55;65.24
69570;BME280;56781;42.292;23.146;2023-05-21T06:26:38;95174.44;;;18.50;64.22
69570;BME280;56781;42.292;23.146;2023-05-21T06:29:05;95189.69;;;18.77;63.60
69570;BME280;56781;42.292;23.146;2023-05-21T06:31:33;95177.91;;;18.70;63.36
69570;BME280;56781;42.292;23.146;2023-05-21T06:34:00;95186.88;;;19.16;65.38
69570;BME280;56781;42.292;23.146;2023-05-21T06:36:27;95191.16;;;19.67;63.23
69570;BME280;56781;42.292;23.146;2023-05-21T06:38:55;95170.66;;;19.73;61.03
69570;BME280;56781;42.292;23.146;2023-05-21T06:41:23;95198.84;;;19.38;58.57
69570;BME280;56781;42.292;23.146;2023-05-21T06:43:50;95178.19;;;19.83;58.83
69570;BME280;56781;42.292;23.146;2023-05-21T06:46:17;95181.03;;;20.24;55.98
69570;BME280;56781;42.292;23.146;2023-05-21T06:48:44;95181.66;;;20.78;54.41
69570;BME280;56781;42.292;23.146;2023-05-21T06:51:12;95179.03;;;20.89;55.42
69570;BME280;56781;42.292;23.146;2023-05-21T06:53:39;95177.47;;;21.36;55.63
69570;BME280;56781;42.292;23.146;2023-05-21T06:56:06;95176.69;;;21.32;53.58
69570;BME280;56781;42.292;23.146;2023-05-21T06:58:33;95165.94;;;21.01;55.48
69570;BME280;56781;42.292;23.146;2023-05-21T07:01:00;95176.97;;;20.78;53.28
69570;BME280;56781;42.292;23.146;2023-05-21T07:03:28;95169.38;;;20.95;54.22
69570;BME280;56781;42.292;23.146;2023-05-21T07:05:56;95145.38;;;21.08;49.92
69570;BME280;56781;42.292;23.146;2023-05-21T07:08:23;95145.94;;;21.90;48.83
69570;BME280;56781;42.292;23.146;2023-05-21T07:10:50;95153.50;;;22.25;48.88
69570;BME280;56781;42.292;23.146;2023-05-21T07:13:17;95170.16;;;22.02;46.83
69570;BME280;56781;42.292;23.146;2023-05-21T07:15:44;95178.91;;;22.37;48.12
69570;BME280;56781;42.292;23.146;2023-05-21T07:18:12;95147.19;;;21.41;48.83
69570;BME280;56781;42.292;23.146;2023-05-21T07:20:39;95145.72;;;22.24;46.86
69570;BME280;56781;42.292;23.146;2023-05-21T07:23:06;95150.81;;;22.32;46.10
69570;BME280;56781;42.292;23.146;2023-05-21T07:25:33;95142.72;;;21.66;45.39
69570;BME280;56781;42.292;23.146;2023-05-21T07:28:01;95154.13;;;21.31;48.01
69570;BME280;56781;42.292;23.146;2023-05-21T07:30:31;95135.09;;;20.49;50.73
69570;BME280;56781;42.292;23.146;2023-05-21T07:32:58;95147.34;;;20.32;50.24
69570;BME280;56781;42.292;23.146;2023-05-21T07:35:25;95152.13;;;20.09;51.33
69570;BME280;56781;42.292;23.146;2023-05-21T07:37:52;95145.06;;;20.38;51.63
69570;BME280;56781;42.292;23.146;2023-05-21T07:40:19;95144.63;;;20.32;51.08
69570;BME280;56781;42.292;23.146;2023-05-21T07:42:46;95167.06;;;20.22;48.91
69570;BME280;56781;42.292;23.146;2023-05-21T07:45:13;95176.75;;;20.57;48.49
69570;BME280;56781;42.292;23.146;2023-05-21T07:47:41;95148.91;;;20.67;49.00
69570;BME280;56781;42.292;23.146;2023-05-21T07:50:08;95160.50;;;20.61;52.31
69570;BME280;56781;42.292;23.146;2023-05-21T07:52:36;95168.34;;;20.69;47.49
69570;BME280;56781;42.292;23.146;2023-05-21T07:55:03;95175.25;;;21.00;45.98
69570;BME280;56781;42.292;23.146;2023-05-21T07:57:30;95168.47;;;21.80;47.00
69570;BME280;56781;42.292;23.146;2023-05-21T07:59:57;95164.09;;;21.16;46.26
69570;BME280;56781;42.292;23.146;2023-05-21T08:02:24;95177.31;;;21.14;49.93
69570;BME280;56781;42.292;23.146;2023-05-21T08:04:52;95169.69;;;21.34;46.43
69570;BME280;56781;42.292;23.146;2023-05-21T08:07:20;95193.97;;;21.50;46.33
69570;BME280;56781;42.292;23.146;2023-05-21T08:09:47;95183.94;;;21.65;44.24
69570;BME280;56781;42.292;23.146;2023-05-21T08:12:14;95203.28;;;21.49;42.74
69570;BME280;56781;42.292;23.146;2023-05-21T08:14:42;95184.69;;;22.28;43.22
69570;BME280;56781;42.292;23.146;2023-05-21T08:17:09;95184.78;;;21.73;41.32
69570;BME280;56781;42.292;23.146;2023-05-21T08:19:39;95181.50;;;21.01;43.53
69570;BME280;56781;42.292;23.146;2023-05-21T08:22:07;95208.16;;;20.85;44.50
69570;BME280;56781;42.292;23.146;2023-05-21T08:24:34;95187.38;;;20.35;43.63
69570;BME280;56781;42.292;23.146;2023-05-21T08:27:01;95191.63;;;20.03;46.20
69570;BME280;56781;42.292;23.146;2023-05-21T08:29:28;95204.81;;;20.01;46.08
69570;BME280;56781;42.292;23.146;2023-05-21T08:31:55;95228.81;;;19.95;45.95
69570;BME280;56781;42.292;23.146;2023-05-21T08:34:23;95217.19;;;19.68;42.51
69570;BME280;56781;42.292;23.146;2023-05-21T08:36:50;95212.75;;;19.60;42.75
69570;BME280;56781;42.292;23.146;2023-05-21T08:39:19;95203.47;;;19.61;41.37
69570;BME280;56781;42.292;23.146;2023-05-21T08:41:49;95220.78;;;19.53;43.74
69570;BME280;56781;42.292;23.146;2023-05-21T08:44:24;95210.84;;;19.37;43.40
69570;BME280;56781;42.292;23.146;2023-05-21T08:46:53;95223.91;;;19.28;43.54
69570;BME280;56781;42.292;23.146;2023-05-21T08:49:25;95223.13;;;19.27;43.53
69570;BME280;56781;42.292;23.146;2023-05-21T08:51:57;95223.28;;;19.38;41.76
69570;BME280;56781;42.292;23.146;2023-05-21T08:54:25;95225.78;;;19.51;42.79
69570;BME280;56781;42.292;23.146;2023-05-21T08:56:54;95210.44;;;19.62;42.46
69570;BME280;56781;42.292;23.146;2023-05-21T08:59:22;95200.66;;;19.80;41.79
69570;BME280;56781;42.292;23.146;2023-05-21T09:01:50;95221.88;;;19.98;41.22
69570;BME280;56781;42.292;23.146;2023-05-21T09:04:18;95219.81;;;19.91;42.98
69570;BME280;56781;42.292;23.146;2023-05-21T09:06:47;95220.59;;;19.91;42.25
69570;BME280;56781;42.292;23.146;2023-05-21T09:09:27;95209.97;;;19.79;42.76
69570;BME280;56781;42.292;23.146;2023-05-21T09:11:57;95201.22;;;19.93;44.09
69570;BME280;56781;42.292;23.146;2023-05-21T09:14:25;95190.31;;;19.63;43.90
69570;BME280;56781;42.292;23.146;2023-05-21T09:16:52;95222.38;;;19.80;44.53
69570;BME280;56781;42.292;23.146;2023-05-21T09:19:20;95219.25;;;19.78;45.36
69570;BME280;56781;42.292;23.146;2023-05-21T09:21:50;95198.63;;;19.51;44.22
69570;BME280;56781;42.292;23.146;2023-05-21T09:24:20;95194.38;;;19.49;44.65
69570;BME280;56781;42.292;23.146;2023-05-21T09:26:50;95216.09;;;19.26;46.18
69570;BME280;56781;42.292;23.146;2023-05-21T09:29:18;95205.25;;;19.26;46.73
69570;BME280;56781;42.292;23.146;2023-05-21T09:31:45;95215.19;;;19.42;48.07
69570;BME280;56781;42.292;23.146;2023-05-21T09:34:12;95188.34;;;19.37;47.06
69570;BME280;56781;42.292;23.146;2023-05-21T09:36:42;95197.91;;;19.54;45.51
69570;BME280;56781;42.292;23.146;2023-05-21T09:39:09;95195.25;;;19.84;47.80
69570;BME280;56781;42.292;23.146;2023-05-21T09:41:42;95205.09;;;20.22;46.99
69570;BME280;56781;42.292;23.146;2023-05-21T09:44:09;95195.97;;;19.77;46.16
69570;BME280;56781;42.292;23.146;2023-05-21T09:46:39;95196.78;;;19.81;47.31
69570;BME280;56781;42.292;23.146;2023-05-21T09:49:21;95199.19;;;19.86;47.63
69570;BME280;56781;42.292;23.146;2023-05-21T09:51:49;95176.66;;;19.86;46.35
69570;BME280;56781;42.292;23.146;2023-05-21T09:54:16;95183.53;;;20.36;46.46
69570;BME280;56781;42.292;23.146;2023-05-21T09:56:43;95191.22;;;20.65;46.62
69570;BME280;56781;42.292;23.146;2023-05-21T09:59:10;95165.88;;;20.23;46.61
69570;BME280;56781;42.292;23.146;2023-05-21T10:01:37;95185.88;;;21.16;45.49
69570;BME280;56781;42.292;23.146;2023-05-21T10:04:08;95161.03;;;21.73;47.52
69570;BME280;56781;42.292;23.146;2023-05-21T10:06:46;95161.81;;;21.74;43.42
69570;BME280;56781;42.292;23.146;2023-05-21T10:09:14;95159.84;;;21.71;40.36
69570;BME280;56781;42.292;23.146;2023-05-21T10:11:45;95158.16;;;21.48;41.73
69570;BME280;56781;42.292;23.146;2023-05-21T10:14:19;95177.69;;;21.09;39.52
69570;BME280;56781;42.292;23.146;2023-05-21T10:16:49;95150.38;;;21.02;38.35
69570;BME280;56781;42.292;23.146;2023-05-21T10:19:19;95180.47;;;20.79;39.83
69570;BME280;56781;42.292;23.146;2023-05-21T10:21:48;95158.44;;;20.88;40.64
69570;BME280;56781;42.292;23.146;2023-05-21T10:24:18;95178.97;;;20.81;41.19
69570;BME280;56781;42.292;23.146;2023-05-21T10:26:46;95155.97;;;20.75;43.38
69570;BME280;56781;42.292;23.146;2023-05-21T10:29:14;95144.72;;;20.77;43.76
69570;BME280;56781;42.292;23.146;2023-05-21T10:31:45;95162.69;;;21.33;40.76
69570;BME280;56781;42.292;23.146;2023-05-21T10:34:16;95168.44;;;20.76;40.77
69570;BME280;56781;42.292;23.146;2023-05-21T10:36:45;95165.84;;;20.91;39.93
69570;BME280;56781;42.292;23.146;2023-05-21T10:39:15;95158.25;;;20.70;41.85
69570;BME280;56781;42.292;23.146;2023-05-21T10:42:15;95178.16;;;21.22;38.86
69570;BME280;56781;42.292;23.146;2023-05-21T10:44:48;95184.50;;;21.37;39.09
69570;BME280;56781;42.292;23.146;2023-05-21T10:47:46;95172.41;;;21.93;41.94
69570;BME280;56781;42.292;23.146;2023-05-21T10:53:48;95155.78;;;21.43;40.85
69570;BME280;56781;42.292;23.146;2023-05-21T10:56:38;95150.81;;;21.56;41.20
69570;BME280;56781;42.292;23.146;2023-05-21T11:02:04;95158.00;;;21.30;38.68
69570;BME280;56781;42.292;23.146;2023-05-21T11:04:32;95160.44;;;20.98;39.99
69570;BME280;56781;42.292;23.146;2023-05-21T11:07:05;95183.66;;;21.25;43.63
69570;BME280;56781;42.292;23.146;2023-05-21T11:09:32;95174.47;;;21.44;43.41
69570;BME280;56781;42.292;23.146;2023-05-21T11:11:59;95164.66;;;21.36;42.87
69570;BME280;56781;42.292;23.146;2023-05-21T11:14:31;95145.81;;;21.17;41.19
69570;BME280;56781;42.292;23.146;2023-05-21T11:19:43;95165.78;;;21.32;43.80
69570;BME280;56781;42.292;23.146;2023-05-21T11:22:24;95152.88;;;21.77;43.84
69570;BME280;56781;42.292;23.146;2023-05-21T11:24:53;95176.69;;;21.87;43.23
69570;BME280;56781;42.292;23.146;2023-05-21T11:29:58;95158.66;;;22.55;39.75
69570;BME280;56781;42.292;23.146;2023-05-21T11:32:25;95154.03;;;22.74;42.92
69570;BME280;56781;42.292;23.146;2023-05-21T11:34:52;95146.25;;;22.79;40.99
69570;BME280;56781;42.292;23.146;2023-05-21T11:39:49;95162.63;;;22.72;40.77
69570;BME280;56781;42.292;23.146;2023-05-21T11:42:44;95155.50;;;22.35;40.93
69570;BME280;56781;42.292;23.146;2023-05-21T11:45:19;95138.41;;;22.42;40.26
69570;BME280;56781;42.292;23.146;2023-05-21T11:47:48;95134.34;;;22.07;39.95
69570;BME280;56781;42.292;23.146;2023-05-21T11:50:16;95156.25;;;22.22;41.36
69570;BME280;56781;42.292;23.146;2023-05-21T11:52:43;95155.91;;;21.61;41.65
69570;BME280;56781;42.292;23.146;2023-05-21T11:55:11;95159.69;;;21.45;41.77
69570;BME280;56781;42.292;23.146;2023-05-21T11:57:42;95162.59;;;21.22;42.34
69570;BME280;56781;42.292;23.146;2023-05-21T12:00:15;95154.28;;;21.01;43.36
69570;BME280;56781;42.292;23.146;2023-05-21T12:02:48;95157.91;;;21.19;41.06
69570;BME280;56781;42.292;23.146;2023-05-21T12:05:16;95147.44;;;21.25;41.09
69570;BME280;56781;42.292;23.146;2023-05-21T12:07:45;95141.53;;;21.12;43.27
69570;BME280;56781;42.292;23.146;2023-05-21T12:10:14;95130.16;;;21.55;42.60
69570;BME280;56781;42.292;23.146;2023-05-21T12:12:42;95134.19;;;21.79;41.68
69570;BME280;56781;42.292;23.146;2023-05-21T12:15:23;95135.78;;;21.83;41.84
69570;BME280;56781;42.292;23.146;2023-05-21T12:17:50;95140.53;;;21.94;42.19
69570;BME280;56781;42.292;23.146;2023-05-21T12:20:18;95110.91;;;21.88;44.12
69570;BME280;56781;42.292;23.146;2023-05-21T12:22:47;95120.31;;;22.02;43.38
69570;BME280;56781;42.292;23.146;2023-05-21T12:25:17;95121.28;;;21.65;40.94
69570;BME280;56781;42.292;23.146;2023-05-21T12:27:47;95124.88;;;21.80;41.35
69570;BME280;56781;42.292;23.146;2023-05-21T12:30:16;95140.34;;;21.65;44.44
69570;BME280;56781;42.292;23.146;2023-05-21T12:32:43;95133.31;;;21.57;42.84
69570;BME280;56781;42.292;23.146;2023-05-21T12:35:23;95137.72;;;21.24;43.77
69570;BME280;56781;42.292;23.146;2023-05-21T12:37:51;95143.53;;;21.22;42.97
69570;BME280;56781;42.292;23.146;2023-05-21T12:40:18;95134.97;;;20.72;45.44
69570;BME280;56781;42.292;23.146;2023-05-21T12:42:46;95134.31;;;20.49;44.95
69570;BME280;56781;42.292;23.146;2023-05-21T12:45:13;95158.75;;;20.45;45.78
69570;BME280;56781;42.292;23.146;2023-05-21T12:47:46;95137.72;;;20.39;45.80
69570;BME280;56781;42.292;23.146;2023-05-21T12:50:19;95151.69;;;20.41;45.55
69570;BME280;56781;42.292;23.146;2023-05-21T12:52:46;95147.59;;;20.54;45.85
69570;BME280;56781;42.292;23.146;2023-05-21T12:55:14;95134.00;;;20.54;45.87
69570;BME280;56781;42.292;23.146;2023-05-21T12:57:41;95154.41;;;20.74;44.27
69570;BME280;56781;42.292;23.146;2023-05-21T13:00:09;95160.41;;;20.91;45.41
69570;BME280;56781;42.292;23.146;2023-05-21T13:02:39;95134.94;;;20.69;43.51
69570;BME280;56781;42.292;23.146;2023-05-21T13:05:09;95121.63;;;20.60;42.54
69570;BME280;56781;42.292;23.146;2023-05-21T13:07:38;95130.53;;;20.57;43.19
69570;BME280;56781;42.292;23.146;2023-05-21T13:10:06;95129.84;;;20.67;46.81
69570;BME280;56781;42.292;23.146;2023-05-21T13:12:33;95125.75;;;20.47;48.86
69570;BME280;56781;42.292;23.146;2023-05-21T13:15:02;95127.13;;;20.67;47.81